Burns Pinion Ridge Reserve, California Weather observations

Data are for 10 minute period ending at time listed.
 Day   Time   Solar   Ave.   Ave.  Ave.  Vector  Max.   Baro.   Total    
  of    of     Rad.   Air    Rel.  Wind   Wind   Wind  Press.  Precip.   
Year   Day            Temp.  Hum.  Speed  Dir.   Gust                    
2017   (PST)  Kw/m2    F      %     mph   deg.    mph    mb.     in.     
-------------------------------------------------------------------------
 143   10:10   0.95   88.0    10    5.3   118    10.0   877.8    0.00 
 143   10:20   0.97   88.5    10    3.2    65    10.0   877.8    0.00 
 143   10:30   0.98   89.0     9    3.3   161    11.0   877.8    0.00 
 143   10:40   0.99   88.3    10    4.5   105     9.9   877.6    0.00 
 143   10:50   1.00   88.9    10    7.2   145    15.4   877.5    0.00 
 143   11:00   1.01   89.2    10    2.8   230     8.6   877.5    0.00 
 143   11:10   1.01   89.1    10    5.1   132    13.5   877.3    0.00 
 143   11:20   1.01   90.2     9    3.8   223     9.6   877.3    0.00 
 143   11:30   1.02   90.8     9    7.7   165    17.5   877.2    0.00 
 143   11:40   1.02   89.7    10    8.9   155    17.7   877.1    0.00 
 143   11:50   1.02   89.2     9    3.9    92    10.0   877.0    0.00 
 143   12:00   1.00   90.0     9    4.9   163    17.5   876.9    0.00 
 143   12:10   1.02   90.4     9    8.3   141    16.0   876.8    0.00 
 143   12:20   1.01   90.4     9    5.7   136    13.2   876.7    0.00 
 143   12:30   1.01   90.9     9    7.9   121    17.9   876.6    0.00 
 143   12:40   0.99   90.0     9    6.5   123    16.1   876.5    0.00 
 143   12:50   0.99   91.4     9    8.3   145    13.4   876.4    0.00 
 143   13:00   0.98   91.1     9    6.9   133    13.6   876.2    0.00 
 143   13:10   0.96   91.6     9    6.6   203    18.0   876.1    0.00 
 143   13:20   0.95   90.7     9    6.7   212    11.5   876.1    0.00 
 143   13:30   0.93   90.2    10    8.3   223    16.7   876.1    0.00 
 143   13:40   0.92   91.5     9    5.5   204    12.6   876.0    0.00 
 143   13:50   0.90   91.2    10    6.8   232    12.2   875.8    0.00 
 143   14:00   0.88   91.5    10    5.4   192    15.6   875.7    0.00 
 143   14:10   0.85   91.4    10    7.6   176    18.6   875.6    0.00 
 143   14:20   0.83   91.5    10    6.1   182    12.6   875.6    0.00 
 143   14:30   0.80   91.5    10    6.8   215    14.6   875.5    0.00 
 143   14:40   0.78   90.6    10    6.8   208    14.5   875.4    0.00 
 143   14:50   0.75   91.0    10    4.9   201    11.2   875.2    0.00 
 143   15:00   0.72   92.4    10    4.8   210    15.1   875.1    0.00 
 143   15:10   0.69   91.1    10    8.2   201    15.2   875.0    0.00 
 143   15:20   0.65   91.0    10    5.1   223    11.6   875.0    0.00 
 143   15:30   0.62   91.3    10    7.3   196    16.7   874.9    0.00 
 143   15:40   0.58   89.8    12    7.2   217    16.1   874.8    0.00 
 143   15:50   0.54   89.2    12    8.9   234    15.6   874.8    0.00 
 143   16:00   0.51   89.0    12    6.5   242    14.8   874.8    0.00 
 143   16:10   0.48   89.0    13    8.6   209    16.7   874.7    0.00 
 143   16:20   0.44   87.4    14   11.2   220    20.2   874.7    0.00 
 143   16:30   0.41   87.6    14    7.6   216    18.1   874.7    0.00 
 143   16:40   0.38   87.7    14    7.9   212    15.6   874.7    0.00 
 143   16:50   0.34   86.9    15    9.0   209    17.6   874.7    0.00 
 143   17:00   0.31   85.9    16    9.8   213    16.4   874.7    0.00 
 143   17:10   0.27   85.6    16    9.1   216    20.8   874.7    0.00 
 143   17:20   0.24   85.5    16    8.1   214    14.0   874.6    0.00 
 143   17:30   0.20   85.5    16    8.0   211    13.7   874.6    0.00 
 143   17:40   0.17   84.7    16    7.6   211    13.1   874.6    0.00 
 143   17:50   0.14   84.0    16    8.2   216    16.9   874.6    0.00 
 143   18:00   0.11   83.4    16    8.6   215    18.3   874.6    0.00 
 143   18:10   0.08   82.4    17   10.6   216    17.1   874.7    0.00 
 143   18:20   0.06   81.8    17   12.7   214    21.3   874.7    0.00 
 143   18:30   0.03   81.3    17   10.7   214    17.2   874.7    0.00 
 143   18:40   0.01   80.5    17    7.6   216    14.0   874.8    0.00 
 143   18:50   0.00   79.9    18    5.6   219    10.5   874.9    0.00 
 143   19:00   0.00   79.5    18    6.4   220    12.1   874.8    0.00 
 143   19:10   0.00   79.3    18    6.8   223    10.8   874.8    0.00 
 143   19:20   0.00   78.8    18    4.3   220    10.5   874.9    0.00 
 143   19:30   0.00   78.8    17    5.9   225    11.7   874.9    0.00 
 143   19:40   0.00   77.8    18    2.1   247     6.1   875.1    0.00 
 143   19:50   0.00   77.5    17    3.6   255     8.0   875.1    0.00 
 143   20:00   0.00   76.6    18    2.8   271     5.9   875.0    0.00 
 143   20:10   0.00   76.2    18    3.1   270     6.0   875.0    0.00 
 143   20:20   0.00   75.3    18    2.7   275     5.7   875.0    0.00 
 143   20:30   0.00   74.3    19    1.0   260     3.7   875.0    0.00 
 143   20:40   0.00   71.9    21    2.4   249     4.1   875.0    0.00 
 143   20:50   0.00   72.8    20    3.5   214     5.4   875.0    0.00 
 143   21:00   0.00   74.6    19    3.0   211     6.0   875.0    0.00 
 143   21:10   0.00   74.5    19    2.4   260     4.7   875.0    0.00 
 143   21:20   0.00   73.2    20    2.6   274     4.3   874.9    0.00 
 143   21:30   0.00   71.1    21    2.0   261     3.3   874.9    0.00 
 143   21:40   0.00   69.1    23    2.4   268     5.1   874.9    0.00 
 143   21:50   0.00   69.4    23    2.8   271     5.0   874.8    0.00 
 143   22:00   0.00   69.2    23    3.2   281     5.1   874.7    0.00 
 143   22:10   0.00   68.9    23    3.5   278     4.7   874.7    0.00 
 143   22:20   0.00   69.4    22    3.9   256     5.3   874.5    0.00 
 143   22:30   0.00   72.0    19    3.2   247     5.5   874.5    0.00 
 143   22:40   0.00   71.3    19    3.4   232     5.0   874.5    0.00 
 143   22:50   0.00   70.6    20    4.3   211     5.7   874.4    0.00 
 143   23:00   0.00   72.2    18    3.8   226     6.7   874.4    0.00 
 143   23:10   0.00   70.5    20    3.4   218     4.2   874.4    0.00 
 143   23:20   0.00   67.6    22    2.5   223     3.9   874.3    0.00 
 143   23:30   0.00   66.3    22    3.3   218     4.8   874.2    0.00 
 143   23:40   0.00   69.4    19    3.6   191     5.2   874.1    0.00 
 143   23:50   0.00   70.0    18    3.6   188     6.9   873.9    0.00 
 144    0:00   0.00   71.4    17    3.8   211     6.7   873.8    0.00 
 144    0:10   0.00   70.4    19    3.1   221     4.3   873.8    0.00 
 144    0:20   0.00   68.2    20    3.0   221     3.9   873.7    0.00 
 144    0:30   0.00   67.6    20    3.6   214     5.2   873.6    0.00 
 144    0:40   0.00   68.3    20    4.1   220     6.4   873.5    0.00 
 144    0:50   0.00   67.2    22    2.3   236     5.0   873.4    0.00 
 144    1:00   0.00   65.0    24    0.9   330     2.0   873.3    0.00 
 144    1:10   0.00   63.3    25    1.9   267     3.1   873.2    0.00 
 144    1:20   0.00   63.1    26    1.1   269     2.9   873.2    0.00 
 144    1:30   0.00   63.0    26    0.7   234     2.2   873.1    0.00 
 144    1:40   0.00   62.0    27    1.0   259     2.0   873.0    0.00 
 144    1:50   0.00   61.8    27    0.9   232     1.5   873.0    0.00 
 144    2:00   0.00   60.4    29    0.8   253     1.5   872.9    0.00 
 144    2:10   0.00   59.9    29    0.5   280     1.5   872.8    0.00 
 144    2:20   0.00   59.8    29    0.3   303     1.0   872.8    0.00 
 144    2:30   0.00   60.0    29    0.4   238     1.6   872.7    0.00 
 144    2:40   0.00   59.7    29    0.5   204     1.2   872.7    0.00 
 144    2:50   0.00   59.5    29    1.6   317     4.2   872.6    0.00 
 144    3:00   0.00   59.6    29    0.2   291     0.9   872.6    0.00 
 144    3:10   0.00   58.8    30    0.4   263     1.2   872.5    0.00 
 144    3:20   0.00   58.1    31    1.0   292     2.0   872.4    0.00 
 144    3:30   0.00   57.9    31    0.6   343     1.6   872.4    0.00 
 144    3:40   0.00   58.5    30    0.0   277     0.6   872.4    0.00 
 144    3:50   0.00   58.0    30    0.1   343     0.9   872.3    0.00 
 144    4:00   0.00   58.2    30    0.0   281     0.7   872.3    0.00 
 144    4:10   0.00   58.2    30    0.0   233     1.0   872.3    0.00 
 144    4:20   0.00   58.4    30    0.7   254     1.5   872.3    0.00 
 144    4:30   0.00   57.6    31    0.9   306     1.6   872.3    0.00 
 144    4:40   0.00   58.2    30    0.3   295     1.5   872.3    0.00 
 144    4:50   0.01   57.9    30    0.0     0     0.0   872.3    0.00 
 144    5:00   0.01   58.0    31    0.9   289     2.2   872.3    0.00 
 144    5:10   0.01   58.9    30    1.4   302     2.6   872.3    0.00 
 144    5:20   0.07   59.6    30    0.6   278     1.3   872.4    0.00 
 144    5:30   0.10   63.7    27    0.9   288     2.7   872.5    0.00 
 144    5:40   0.13   68.0    23    1.0   325     2.7   872.5    0.00 
 144    5:50   0.16   71.9    20    0.1   321     0.7   872.4    0.00 
 144    6:00   0.19   74.9    18    0.8   343     1.9   872.3    0.00 
 144    6:10   0.23   77.9    16    0.5     2     1.5   872.2    0.00 
 144    6:20   0.27   79.8    15    0.4   304     1.9   872.2    0.00 
 144    6:30   0.27   78.7    16    1.3   339     2.8   872.3    0.00 
 144    6:40   0.34   81.6    14    0.5   336     1.8   872.4    0.00 
 144    6:50   0.38   82.8    14    1.1   336     1.7   872.5    0.00 
 144    7:00   0.42   84.2    12    0.8    22     2.5   872.6    0.00 
 144    7:10   0.48   85.0    11    3.1   128     5.2   872.7    0.00 
 144    7:20   0.47   84.2    10    2.6   127     5.0   872.8    0.00 
 144    7:30   0.54   85.0    10    1.4    84     4.6   872.9    0.00 
 144    7:40   0.57   85.4    10    2.7   119     4.8   873.0    0.00 
 144    7:50   0.65   85.4    10    2.9   167     6.4   873.0    0.00 
 144    8:00   0.54   86.5    10    2.6   167     5.5   872.9    0.00 
 144    8:10   0.52   84.9    10    4.3   156     8.5   872.9    0.00 
 144    8:20   0.70   86.3     9    4.5   162     8.1   872.9    0.00 
 144    8:30   0.59   85.2    10    4.5   158     8.0   872.9    0.00 
 144    8:40   0.59   85.2    10    4.6   165     8.7   872.8    0.00 
 144    8:50   0.32   83.9    10    4.0   153     7.7   872.6    0.00 
 144    9:00   0.62   83.8     9    4.1   143     7.7   872.4    0.00 
 144    9:10   0.50   84.7     9    3.9   168     6.9   872.4    0.00 
 144    9:20   0.93   86.7     8    4.5   144     7.7   872.4    0.00 
 144    9:30   0.97   87.7     8    6.3   142    10.1   872.3    0.00 
 144    9:40   1.02   88.9     8    6.4   153    11.8   872.3    0.00 
 144    9:50   0.96   89.0     6    8.6   153    16.1   872.2    0.00 
 144   10:00   0.46   86.4     6    5.0   158    12.1   872.2    0.00 

Return to Burns Pinion Ridge Reserve graphs page.


Western Regional Climate Center,wrcc@dri.edu